Terminal Aerodrome Forecast
Issued by NWS

Current Version | Previous Version | Graphics & Text | Print | Product List | Glossary On
Versions: 1 2 3 4 5 6 7 8 9 10 11 12 13 14 15 16 17 18 19 20 21 22 23 24 25
479
FTUS41 KRLX 150541
TAFCKB
TAF
KCKB 150541Z 1506/1606 18004KT P6SM SKC
     FM151200 20006KT P6SM FEW050
     FM151400 22010KT P6SM FEW120
     FM151600 22013G20KT P6SM FEW250
     FM152200 24010KT P6SM BKN015
     FM152300 26010KT 5SM SHRA BR OVC015
     FM160000 26010KT 4SM SHRA BR OVC007
     FM160300 29008KT P6SM BKN025=

USA.gov is the U.S. government's official web portal to all federal, state and local government web resources and services.